Welland, Canada
Current Conditions -  °F | °C
As of 6:00 PM on Tuesday 25 Nov 2014 (Local Time) from CYSN Reporting Station
Overcast Overcast  
Wind Chill: 26°   Ceiling: 5600
Heat Index: 36°   Visibility: 15mi
Dew Point: 25°   Wind: 15mph
Humidity: 65%   Direction: 260°W
Pressure: 30.08"   Gusts: 22mph
Location:  42.99°N, 79.24°W
Report Text: CYSN 252300Z 26013G19KT 15SM FEW025 OVC056 02/M04 A3008 RMK SC2SC6 SLP190
Loading
Personal Weather Stations






























Interactive Weather Map New forecast layout! Learn more

10-Day Weather Forecast

Advertisements
Track Severe Weather on mobile